Terminal Aerodrome Forecast
Issued by NWS

Home | Current Version | Previous Version | Text Only | Print | Product List | Glossary On
Versions: 1 2 3 4 5 6 7 8 9 10 11 12 13
000
FTAK31 PANC 231740
TAFAHO
TAF
PAHO 231740Z 2318/2418 VRB03KT P6SM SCT040
     FM232200 24010KT P6SM SCT060
     FM240600 VRB03KT P6SM SKC
     FM241600 06005KT P6SM FEW060 BKN120=

USA.gov is the U.S. government's official web portal to all federal, state and local government web resources and services.